Time;durP1;ratioP1;P1;durP2;ratioP2;P2;SDS_P1;SDS_P2;PMS_P1;PMS_P2;Temp;Humidity;BMP_temperature;BMP_pressure;BME280_temperature;BME280_humidity;BME280_pressure;Samples;Min_cycle;Max_cycle;Signal;HPM_P1;HPM_P2
2021/09/01 00:01:20;;;;;;;8.32;4.00;;;27.60;99.90;;;;;;4183572;28;20045;-66
2021/09/01 00:03:29;;;;;;;8.65;4.35;;;27.80;99.90;;;;;;4191754;28;20052;-66
2021/09/01 00:05:33;;;;;;;4.55;3.25;;;27.80;99.90;;;;;;4182358;28;20051;-66
2021/09/01 00:07:38;;;;;;;6.65;3.13;;;27.70;99.90;;;;;;4183265;28;20056;-67
2021/09/01 00:09:42;;;;;;;7.18;3.13;;;27.60;99.90;;;;;;4176657;28;20676;-67
2021/09/01 00:11:47;;;;;;;5.95;3.08;;;27.70;99.90;;;;;;4181801;28;20045;-67
2021/09/01 00:13:51;;;;;;;6.55;3.13;;;27.90;99.90;;;;;;4186369;28;20052;-66
2021/09/01 00:15:56;;;;;;;5.15;3.13;;;28.00;99.90;;;;;;4183209;28;20107;-66
2021/09/01 00:18:00;;;;;;;5.63;3.20;;;27.90;99.90;;;;;;4181323;28;20083;-66
2021/09/01 00:20:07;;;;;;;8.10;3.00;;;27.90;99.90;;;;;;4177924;28;20041;-66
2021/09/01 00:22:11;;;;;;;4.05;3.17;;;27.90;99.90;;;;;;4188213;28;20036;-67
2021/09/01 00:24:17;;;;;;;5.05;2.65;;;28.00;99.90;;;;;;4188766;28;20056;-67
2021/09/01 00:26:21;;;;;;;4.68;2.45;;;28.10;99.90;;;;;;4183274;28;20803;-68
2021/09/01 00:28:26;;;;;;;4.00;2.40;;;28.10;99.90;;;;;;4185252;28;20060;-67
2021/09/01 00:30:30;;;;;;;6.43;2.65;;;28.00;99.90;;;;;;4180230;28;20058;-66
2021/09/01 00:32:35;;;;;;;3.85;2.30;;;28.00;99.90;;;;;;4185405;28;20048;-66
2021/09/01 00:34:40;;;;;;;2.97;2.30;;;27.90;99.90;;;;;;4188508;28;20062;-67
2021/09/01 00:36:44;;;;;;;2.97;2.17;;;28.10;99.90;;;;;;4186156;28;20470;-68
2021/09/01 00:38:49;;;;;;;5.43;2.10;;;28.20;99.90;;;;;;4192964;28;20048;-67
2021/09/01 00:40:54;;;;;;;3.53;1.90;;;28.30;99.90;;;;;;4185246;28;20139;-67
2021/09/01 00:42:59;;;;;;;3.55;1.80;;;28.30;99.90;;;;;;4195142;28;20406;-67
2021/09/01 00:45:04;;;;;;;3.80;1.92;;;28.30;99.90;;;;;;4192665;28;20044;-67
2021/09/01 00:47:09;;;;;;;4.32;1.90;;;28.30;99.90;;;;;;4194553;28;20068;-67
2021/09/01 00:49:14;;;;;;;2.10;1.70;;;28.40;99.90;;;;;;4189622;28;20502;-67
2021/09/01 00:51:18;;;;;;;3.30;1.58;;;28.30;99.90;;;;;;4182679;28;20481;-68
2021/09/01 00:53:26;;;;;;;2.60;1.67;;;28.20;99.90;;;;;;4193016;28;20060;-67
2021/09/01 00:55:31;;;;;;;2.83;2.00;;;28.30;99.90;;;;;;4195653;28;20051;-67
2021/09/01 00:57:38;;;;;;;2.97;1.83;;;28.40;99.90;;;;;;4191515;28;20565;-67
2021/09/01 00:59:43;;;;;;;2.70;1.73;;;28.40;99.90;;;;;;4185766;28;20131;-67
2021/09/01 01:01:47;;;;;;;3.25;1.60;;;28.50;99.90;;;;;;4189846;28;20144;-68
2021/09/01 01:03:53;;;;;;;2.13;1.52;;;28.60;99.90;;;;;;4226536;28;20502;-67
2021/09/01 01:05:57;;;;;;;2.50;1.30;;;28.70;99.90;;;;;;4227293;28;20104;-67
2021/09/01 01:08:02;;;;;;;2.00;1.45;;;28.90;99.90;;;;;;4226361;28;20039;-68
2021/09/01 01:10:06;;;;;;;3.42;1.67;;;28.70;99.90;;;;;;4218013;28;20050;-68
2021/09/01 01:12:14;;;;;;;6.82;2.40;;;28.80;99.90;;;;;;4223064;28;20040;-67
2021/09/01 01:14:19;;;;;;;5.57;2.05;;;28.70;99.90;;;;;;4226518;28;20413;-67
2021/09/01 01:16:23;;;;;;;4.20;2.50;;;28.70;99.90;;;;;;4226915;28;20769;-68
2021/09/01 01:18:28;;;;;;;3.00;2.03;;;28.70;99.90;;;;;;4213778;28;20505;-69
2021/09/01 01:20:32;;;;;;;2.10;1.73;;;28.70;99.90;;;;;;4224002;28;20497;-66
2021/09/01 01:22:37;;;;;;;3.63;1.90;;;28.90;99.90;;;;;;4223743;28;20048;-66
2021/09/01 01:25:05;;;;;;;3.03;2.40;;;29.00;99.90;;;;;;4230048;28;20067;-65
2021/09/01 01:27:37;;;;;;;2.35;1.85;;;29.10;99.90;;;;;;4229807;28;20130;-67
2021/09/01 01:29:41;;;;;;;3.08;2.10;;;29.20;99.90;;;;;;4226883;28;20081;-66
2021/09/01 01:31:49;;;;;;;3.33;1.67;;;29.20;99.90;;;;;;4230372;27;20127;-66
2021/09/01 01:33:53;;;;;;;2.30;1.75;;;29.30;99.90;;;;;;4231944;27;20048;-66
2021/09/01 01:35:58;;;;;;;2.92;1.95;;;29.40;99.90;;;;;;4233489;27;20558;-66
2021/09/01 01:38:06;;;;;;;1.52;1.38;;;29.40;99.90;;;;;;4230173;28;20055;-67
2021/09/01 01:40:11;;;;;;;2.42;1.52;;;29.50;99.90;;;;;;4213732;28;20060;-67
2021/09/01 01:42:15;;;;;;;2.25;1.80;;;29.50;99.90;;;;;;4230009;28;20032;-67
2021/09/01 01:44:20;;;;;;;3.90;1.65;;;29.40;99.90;;;;;;4229346;28;20062;-67
2021/09/01 01:46:24;;;;;;;1.90;1.45;;;29.30;99.90;;;;;;4229044;28;20048;-66
2021/09/01 01:48:29;;;;;;;4.20;1.90;;;29.30;99.90;;;;;;4231199;27;20055;-66
2021/09/01 01:50:34;;;;;;;2.92;1.83;;;29.30;99.90;;;;;;4232553;27;20054;-66
2021/09/01 01:52:39;;;;;;;4.47;1.85;;;29.30;99.90;;;;;;4229698;28;20439;-65
2021/09/01 01:54:44;;;;;;;2.88;2.00;;;29.50;99.90;;;;;;4234880;27;20600;-66
2021/09/01 01:56:48;;;;;;;5.32;1.88;;;29.60;99.90;;;;;;4229421;27;21145;-66
2021/09/01 01:58:53;;;;;;;2.85;1.90;;;29.70;99.90;;;;;;4232002;27;20133;-66
2021/09/01 02:00:57;;;;;;;4.10;1.98;;;29.70;99.90;;;;;;4233832;27;20047;-66
2021/09/01 02:03:04;;;;;;;4.95;2.60;;;29.90;99.90;;;;;;4206120;27;20052;-66
2021/09/01 02:05:09;;;;;;;3.97;1.92;;;30.00;99.90;;;;;;4193464;28;20044;-67
2021/09/01 02:07:14;;;;;;;4.03;1.85;;;30.00;99.90;;;;;;4193553;28;20048;-66
2021/09/01 02:09:18;;;;;;;2.67;2.10;;;30.10;99.90;;;;;;4188967;28;20060;-66
2021/09/01 02:11:23;;;;;;;2.90;2.05;;;30.10;99.90;;;;;;4187416;28;20055;-66
2021/09/01 02:13:27;;;;;;;3.80;1.85;;;30.20;99.90;;;;;;4192334;28;20106;-67
2021/09/01 02:15:35;;;;;;;3.15;1.85;;;30.20;99.90;;;;;;4194365;28;20043;-67
2021/09/01 02:17:40;;;;;;;2.13;1.65;;;30.30;99.90;;;;;;4194301;28;20048;-66
2021/09/01 02:19:45;;;;;;;2.72;2.08;;;30.40;99.90;;;;;;4193514;28;20127;-66
2021/09/01 02:21:50;;;;;;;3.97;1.77;;;30.30;99.90;;;;;;4194588;28;20056;-66
2021/09/01 02:23:55;;;;;;;4.15;2.00;;;30.30;99.90;;;;;;4194822;28;20032;-66
2021/09/01 02:26:00;;;;;;;5.88;2.85;;;30.30;99.90;;;;;;4193411;28;20040;-66
2021/09/01 02:28:05;;;;;;;4.38;2.20;;;30.20;99.90;;;;;;4195846;28;20048;-65
2021/09/01 02:30:12;;;;;;;2.95;2.20;;;30.20;99.90;;;;;;4198393;28;20170;-66
2021/09/01 02:32:16;;;;;;;2.80;2.00;;;30.30;99.90;;;;;;4192330;28;20358;-66
2021/09/01 02:34:21;;;;;;;3.72;2.10;;;30.40;99.90;;;;;;4192180;28;20057;-66
2021/09/01 02:36:26;;;;;;;2.90;2.15;;;30.40;99.90;;;;;;4191174;28;20481;-67
2021/09/01 02:38:30;;;;;;;2.80;2.25;;;30.50;99.90;;;;;;4191734;28;20528;-66
2021/09/01 02:40:34;;;;;;;4.93;3.00;;;30.70;99.90;;;;;;4195226;28;20044;-66
2021/09/01 02:42:38;;;;;;;3.78;2.55;;;30.60;99.90;;;;;;4193127;28;20045;-66
2021/09/01 02:44:42;;;;;;;3.80;2.50;;;30.60;99.90;;;;;;4189255;28;20051;-65
2021/09/01 02:46:47;;;;;;;5.72;2.80;;;30.70;99.90;;;;;;4194977;28;20052;-66
2021/09/01 02:48:51;;;;;;;3.75;2.90;;;30.80;99.90;;;;;;4193111;28;20041;-66
2021/09/01 02:50:55;;;;;;;2.90;2.45;;;30.80;99.90;;;;;;4194539;28;20119;-65
2021/09/01 02:53:00;;;;;;;3.55;2.20;;;30.90;99.90;;;;;;4193571;28;20071;-66
2021/09/01 02:55:05;;;;;;;2.75;2.20;;;31.00;99.90;;;;;;4193853;28;20045;-65
2021/09/01 02:57:09;;;;;;;2.78;2.50;;;31.10;99.90;;;;;;4192957;28;20052;-66
2021/09/01 02:59:14;;;;;;;2.90;2.30;;;31.10;99.90;;;;;;4194888;28;20048;-66
2021/09/01 03:01:18;;;;;;;5.82;2.30;;;31.10;99.90;;;;;;4195578;28;20578;-65
2021/09/01 03:03:23;;;;;;;3.47;2.47;;;31.10;99.90;;;;;;4225626;27;20463;-65
2021/09/01 03:05:28;;;;;;;3.47;2.30;;;31.20;99.90;;;;;;4229859;28;20385;-66
2021/09/01 03:07:32;;;;;;;2.45;2.15;;;31.20;99.90;;;;;;4229856;28;20055;-66
2021/09/01 03:09:37;;;;;;;2.25;2.00;;;31.10;99.90;;;;;;4234553;27;20050;-65
2021/09/01 03:11:41;;;;;;;4.53;1.95;;;31.10;99.90;;;;;;4237203;27;20515;-65
2021/09/01 03:13:46;;;;;;;2.67;2.20;;;31.20;99.90;;;;;;4236745;27;20455;-65
2021/09/01 03:15:50;;;;;;;2.72;2.45;;;31.30;99.90;;;;;;4232340;27;20170;-66
2021/09/01 03:17:55;;;;;;;3.80;2.67;;;31.30;99.90;;;;;;4235151;27;20612;-65
2021/09/01 03:19:59;;;;;;;3.65;2.00;;;31.30;99.90;;;;;;4234042;27;20046;-65
2021/09/01 03:22:03;;;;;;;3.50;2.30;;;31.40;99.90;;;;;;4236725;27;20063;-65
2021/09/01 03:24:08;;;;;;;4.18;2.00;;;31.30;99.90;;;;;;4236207;27;20043;-67
2021/09/01 03:26:12;;;;;;;4.40;2.42;;;31.30;99.90;;;;;;4216199;28;20827;-63
2021/09/01 03:28:17;;;;;;;3.72;2.10;;;31.50;99.90;;;;;;4234337;27;20043;-66
2021/09/01 03:30:24;;;;;;;2.83;2.30;;;31.60;99.90;;;;;;4231246;27;20043;-65
2021/09/01 03:32:28;;;;;;;4.72;2.20;;;31.60;99.90;;;;;;4233331;27;20541;-65
2021/09/01 03:34:32;;;;;;;4.32;2.60;;;31.80;99.90;;;;;;4230400;27;20417;-65
2021/09/01 03:36:37;;;;;;;5.15;2.40;;;31.80;99.90;;;;;;4228323;28;20043;-65
2021/09/01 03:38:41;;;;;;;3.05;2.63;;;31.90;99.90;;;;;;4226252;28;20127;-64
2021/09/01 03:40:45;;;;;;;3.33;2.05;;;31.80;99.90;;;;;;4228269;28;20039;-65
2021/09/01 03:42:50;;;;;;;3.85;2.63;;;31.80;99.90;;;;;;4229130;28;20126;-65
2021/09/01 03:44:54;;;;;;;3.83;2.20;;;31.80;99.90;;;;;;4228763;28;20044;-64
2021/09/01 03:46:59;;;;;;;2.50;2.20;;;31.70;99.90;;;;;;4228492;28;20047;-65
2021/09/01 03:49:06;;;;;;;5.07;2.70;;;31.70;99.90;;;;;;4228400;28;20047;-65
2021/09/01 03:51:10;;;;;;;7.38;3.22;;;31.80;99.90;;;;;;4228608;28;20039;-65
2021/09/01 03:53:16;;;;;;;8.15;3.45;;;31.90;99.90;;;;;;4226008;28;20046;-64
2021/09/01 03:55:21;;;;;;;7.03;2.50;;;32.10;99.90;;;;;;4228312;28;20066;-65
2021/09/01 03:57:25;;;;;;;3.25;2.58;;;32.20;99.90;;;;;;4227726;28;20561;-65
2021/09/01 03:59:30;;;;;;;5.15;2.30;;;32.20;99.90;;;;;;4226182;28;20043;-64
2021/09/01 04:01:36;;;;;;;2.47;2.13;;;32.10;99.90;;;;;;4228439;28;20044;-65
2021/09/01 04:03:40;;;;;;;2.67;2.35;;;32.20;99.90;;;;;;4228133;28;20509;-65
2021/09/01 04:05:44;;;;;;;2.90;2.20;;;32.10;99.90;;;;;;4228786;28;20470;-65
2021/09/01 04:07:50;;;;;;;4.85;2.17;;;32.10;99.90;;;;;;4228650;28;20105;-65
2021/09/01 04:09:54;;;;;;;3.35;2.10;;;32.20;99.90;;;;;;4225508;28;20046;-65
2021/09/01 04:11:59;;;;;;;5.38;2.50;;;32.30;99.90;;;;;;4228318;28;20139;-65
2021/09/01 04:14:03;;;;;;;3.70;2.20;;;32.30;99.90;;;;;;4228623;28;20043;-65
2021/09/01 04:16:08;;;;;;;3.97;2.10;;;32.40;99.90;;;;;;4227413;28;20131;-65
2021/09/01 04:18:12;;;;;;;2.25;2.05;;;32.40;99.90;;;;;;4228537;28;20054;-65
2021/09/01 04:20:17;;;;;;;3.05;2.20;;;32.50;99.90;;;;;;4226331;28;20047;-64
2021/09/01 04:22:21;;;;;;;3.60;2.38;;;32.50;99.90;;;;;;4226019;28;20549;-66
2021/09/01 04:24:25;;;;;;;2.33;2.00;;;32.60;99.90;;;;;;4225800;28;20044;-65
2021/09/01 04:26:30;;;;;;;3.88;2.30;;;32.40;99.90;;;;;;4224993;28;20451;-65
2021/09/01 04:28:35;;;;;;;4.13;1.88;;;32.50;99.90;;;;;;4225402;28;20044;-66
2021/09/01 04:30:39;;;;;;;2.58;2.22;;;32.50;99.90;;;;;;4222836;28;20047;-64
2021/09/01 04:32:45;;;;;;;2.20;1.77;;;32.50;99.90;;;;;;4223207;28;20109;-64
2021/09/01 04:34:49;;;;;;;2.67;2.13;;;32.60;99.90;;;;;;4225090;28;20552;-64
2021/09/01 04:36:53;;;;;;;2.38;1.80;;;32.60;99.90;;;;;;4225548;28;20051;-65
2021/09/01 04:38:57;;;;;;;1.95;1.75;;;32.70;99.90;;;;;;4225095;28;21192;-64
2021/09/01 04:41:02;;;;;;;2.28;1.50;;;32.70;99.90;;;;;;4224724;28;20042;-64
2021/09/01 04:43:06;;;;;;;2.72;1.70;;;32.70;99.90;;;;;;4225108;28;20043;-65
2021/09/01 04:45:11;;;;;;;1.90;1.50;;;32.70;99.90;;;;;;4225271;28;20052;-64
2021/09/01 04:47:16;;;;;;;4.95;2.30;;;32.70;99.90;;;;;;4222584;28;20074;-65
2021/09/01 04:49:20;;;;;;;6.00;2.58;;;32.70;99.90;;;;;;4225136;28;20395;-64
2021/09/01 04:51:24;;;;;;;2.63;1.90;;;32.70;99.90;;;;;;4225230;28;20481;-65
2021/09/01 04:53:29;;;;;;;2.10;1.90;;;32.90;99.90;;;;;;4208506;28;20431;-65
2021/09/01 04:55:33;;;;;;;3.60;1.83;;;33.00;99.90;;;;;;4224948;28;20504;-65
2021/09/01 04:57:37;;;;;;;2.13;1.73;;;32.90;99.90;;;;;;4225286;28;20054;-64
2021/09/01 04:59:42;;;;;;;3.05;2.03;;;32.80;99.90;;;;;;4227452;28;20074;-64
2021/09/01 05:01:46;;;;;;;3.40;1.88;;;32.90;99.90;;;;;;4224773;28;20049;-65
2021/09/01 05:03:52;;;;;;;2.75;1.90;;;33.00;99.90;;;;;;4227433;28;20444;-63
2021/09/01 05:05:56;;;;;;;2.58;1.73;;;33.00;99.90;;;;;;4232963;28;20624;-63
2021/09/01 05:08:00;;;;;;;2.95;1.88;;;33.10;99.90;;;;;;4228677;28;20560;-65
2021/09/01 05:10:05;;;;;;;4.22;1.92;;;33.20;99.90;;;;;;4228403;28;20063;-63
2021/09/01 05:12:09;;;;;;;2.00;1.65;;;33.30;99.90;;;;;;4228126;28;20514;-63
2021/09/01 05:14:13;;;;;;;2.65;1.73;;;33.20;99.90;;;;;;4228211;28;20043;-63
2021/09/01 05:16:18;;;;;;;3.83;1.70;;;33.10;99.90;;;;;;4228202;28;20044;-63
2021/09/01 05:18:22;;;;;;;2.70;1.67;;;33.00;99.90;;;;;;4228128;28;20036;-62
2021/09/01 05:20:26;;;;;;;2.92;1.63;;;33.00;99.80;;;;;;4227757;28;20055;-63
2021/09/01 05:22:31;;;;;;;3.25;1.83;;;33.00;99.90;;;;;;4229488;28;20059;-63
2021/09/01 05:24:58;;;;;;;2.75;1.98;;;33.20;99.90;;;;;;4230684;28;20082;-63
2021/09/01 05:27:10;;;;;;;3.00;1.77;;;33.30;99.90;;;;;;4231142;28;20035;-63
2021/09/01 05:29:15;;;;;;;4.85;1.77;;;33.30;99.90;;;;;;4231376;28;20039;-63
2021/09/01 05:31:19;;;;;;;1.88;1.50;;;33.50;99.90;;;;;;4231038;28;20104;-64
2021/09/01 05:33:24;;;;;;;3.05;1.65;;;33.50;99.90;;;;;;4230271;28;20545;-63
2021/09/01 05:35:29;;;;;;;2.00;1.70;;;33.60;99.90;;;;;;4230783;28;20039;-63
2021/09/01 05:37:34;;;;;;;2.65;1.63;;;33.70;99.20;;;;;;4216044;28;20135;-63
2021/09/01 05:39:39;;;;;;;2.90;1.70;;;33.60;99.00;;;;;;4230954;28;20343;-63
2021/09/01 05:41:43;;;;;;;2.50;1.70;;;33.60;97.60;;;;;;4231138;28;20114;-63
2021/09/01 05:43:49;;;;;;;2.00;1.60;;;33.30;97.50;;;;;;4204669;28;20391;-63
2021/09/01 05:45:54;;;;;;;1.80;1.48;;;33.30;98.20;;;;;;4230730;28;20040;-63
2021/09/01 05:47:58;;;;;;;3.45;1.55;;;33.20;98.10;;;;;;4230949;28;20097;-63
2021/09/01 05:50:03;;;;;;;1.98;1.73;;;33.20;96.10;;;;;;4231082;27;20047;-63
2021/09/01 05:52:08;;;;;;;1.67;1.48;;;33.00;96.40;;;;;;4225033;28;20405;-63
2021/09/01 05:54:12;;;;;;;3.45;1.60;;;33.00;97.30;;;;;;4224538;28;20047;-63
2021/09/01 05:56:19;;;;;;;2.65;1.40;;;33.10;97.90;;;;;;4230719;28;20068;-63
2021/09/01 05:58:23;;;;;;;2.10;1.48;;;33.30;98.00;;;;;;4231331;28;20040;-63
2021/09/01 06:00:38;;;;;;;1.73;1.52;;;33.40;97.90;;;;;;4226912;28;20056;-63
2021/09/01 06:03:07;;;;;;;2.30;1.65;;;33.50;97.40;;;;;;4228310;28;20047;-63
2021/09/01 06:05:12;;;;;;;2.20;1.45;;;33.60;97.20;;;;;;4230539;28;20040;-64
2021/09/01 06:07:17;;;;;;;3.15;1.92;;;33.60;97.20;;;;;;4231094;28;20039;-63
2021/09/01 06:09:21;;;;;;;2.78;1.63;;;33.60;97.10;;;;;;4222849;28;20071;-63
2021/09/01 06:11:26;;;;;;;3.13;1.90;;;33.70;96.30;;;;;;4230501;28;20130;-63
2021/09/01 06:13:31;;;;;;;5.13;2.25;;;33.70;96.50;;;;;;4230699;28;20047;-63
2021/09/01 06:15:39;;;;;;;2.33;1.60;;;33.80;94.90;;;;;;4230554;28;20073;-63
2021/09/01 06:17:44;;;;;;;3.30;1.65;;;33.80;96.30;;;;;;4213532;28;20044;-63
2021/09/01 06:19:48;;;;;;;2.03;1.67;;;33.90;96.80;;;;;;4230462;28;20492;-64
2021/09/01 06:21:53;;;;;;;1.77;1.60;;;34.00;96.70;;;;;;4230652;28;20032;-63
2021/09/01 06:23:57;;;;;;;2.47;1.52;;;34.10;96.60;;;;;;4230621;28;20046;-64
2021/09/01 06:26:03;;;;;;;2.35;1.60;;;34.20;96.20;;;;;;4230273;28;20050;-63
2021/09/01 06:28:08;;;;;;;3.83;2.10;;;34.30;96.40;;;;;;4230495;28;20048;-63
2021/09/01 06:30:13;;;;;;;1.83;1.42;;;34.30;95.50;;;;;;4229775;28;20558;-64
2021/09/01 06:32:17;;;;;;;3.05;1.92;;;34.30;96.00;;;;;;4230274;28;20456;-63
2021/09/01 06:34:21;;;;;;;5.82;1.85;;;34.30;96.40;;;;;;4230062;28;20083;-62
2021/09/01 06:36:26;;;;;;;3.15;1.70;;;34.50;96.10;;;;;;4227281;28;20444;-64
2021/09/01 06:38:30;;;;;;;3.67;1.63;;;34.50;95.40;;;;;;4227496;28;20043;-63
2021/09/01 06:40:35;;;;;;;6.75;1.77;;;34.60;95.10;;;;;;4219286;28;20488;-64
2021/09/01 06:42:39;;;;;;;2.80;1.60;;;34.60;95.30;;;;;;4227683;28;20745;-64
2021/09/01 06:44:44;;;;;;;1.75;1.50;;;34.70;95.10;;;;;;4227493;27;20051;-64
2021/09/01 06:46:48;;;;;;;2.15;1.73;;;34.70;94.50;;;;;;4227076;28;20108;-64
2021/09/01 06:48:52;;;;;;;1.90;1.50;;;34.70;94.50;;;;;;4227080;28;20055;-63
2021/09/01 06:50:57;;;;;;;2.65;1.48;;;34.80;94.30;;;;;;4227720;28;20059;-64
2021/09/01 06:53:01;;;;;;;1.70;1.30;;;34.80;94.20;;;;;;4217625;28;20076;-63
2021/09/01 06:55:06;;;;;;;1.58;1.20;;;34.80;94.50;;;;;;4221231;28;20685;-65
2021/09/01 06:57:10;;;;;;;2.33;1.70;;;34.90;94.40;;;;;;4226312;28;20759;-64
2021/09/01 06:59:15;;;;;;;2.90;1.75;;;34.90;93.60;;;;;;4226477;28;20078;-65
2021/09/01 07:01:19;;;;;;;2.90;1.38;;;35.00;93.50;;;;;;4223470;28;20048;-65
2021/09/01 07:03:24;;;;;;;2.63;1.35;;;35.00;93.70;;;;;;4225717;28;20059;-65
2021/09/01 07:05:31;;;;;;;2.10;1.70;;;35.00;93.40;;;;;;4226168;28;20048;-64
2021/09/01 07:07:36;;;;;;;4.78;2.00;;;35.00;93.50;;;;;;4225291;28;20081;-62
2021/09/01 07:09:40;;;;;;;5.47;1.92;;;35.00;92.90;;;;;;4224215;28;20059;-63
2021/09/01 07:11:44;;;;;;;2.00;1.60;;;35.00;92.90;;;;;;4224662;28;20043;-62
2021/09/01 07:13:48;;;;;;;2.05;1.48;;;34.80;92.20;;;;;;4226357;28;20040;-63
2021/09/01 07:15:52;;;;;;;4.85;1.70;;;34.80;93.00;;;;;;4225254;28;20051;-63
2021/09/01 07:17:57;;;;;;;4.43;1.33;;;34.80;92.60;;;;;;4224113;28;20084;-63
2021/09/01 07:20:02;;;;;;;4.30;1.65;;;34.80;92.20;;;;;;4225738;28;20117;-63
2021/09/01 07:22:06;;;;;;;2.05;1.45;;;34.90;92.40;;;;;;4226386;28;20031;-63
2021/09/01 07:24:10;;;;;;;2.58;1.60;;;34.90;92.30;;;;;;4225316;28;20043;-63
2021/09/01 07:26:14;;;;;;;2.42;1.42;;;34.70;91.50;;;;;;4225324;28;20043;-63
2021/09/01 07:28:21;;;;;;;3.40;1.67;;;34.80;92.10;;;;;;4219333;28;20055;-64
2021/09/01 07:30:25;;;;;;;1.63;1.52;;;34.80;91.80;;;;;;4225627;28;20070;-63
2021/09/01 07:32:30;;;;;;;2.33;1.52;;;34.70;92.20;;;;;;4230491;27;20081;-63
2021/09/01 07:34:34;;;;;;;2.17;1.60;;;34.70;92.40;;;;;;4226576;27;20044;-64
2021/09/01 07:36:39;;;;;;;1.80;1.45;;;34.80;91.80;;;;;;4224514;27;20461;-64
2021/09/01 07:38:43;;;;;;;1.90;1.50;;;35.00;91.30;;;;;;4224953;27;20119;-63
2021/09/01 07:40:47;;;;;;;4.45;2.00;;;35.10;91.20;;;;;;4225962;28;20043;-62
2021/09/01 07:42:52;;;;;;;2.78;1.52;;;35.00;91.00;;;;;;4227810;28;20050;-62
2021/09/01 07:44:56;;;;;;;2.45;1.70;;;34.90;90.10;;;;;;4224302;28;20106;-61
2021/09/01 07:47:02;;;;;;;4.32;1.70;;;34.90;90.40;;;;;;4226345;28;20042;-62
2021/09/01 07:49:06;;;;;;;2.17;1.50;;;34.70;89.00;;;;;;4208855;28;20058;-63
2021/09/01 07:51:10;;;;;;;2.95;1.70;;;34.50;90.40;;;;;;4226986;28;20051;-63
2021/09/01 07:53:15;;;;;;;2.22;1.45;;;34.50;90.60;;;;;;4226945;28;20040;-63
2021/09/01 07:55:20;;;;;;;1.90;1.58;;;34.40;90.90;;;;;;4234291;27;20043;-63
2021/09/01 07:57:24;;;;;;;3.80;1.70;;;34.40;90.90;;;;;;4235328;27;20051;-63
2021/09/01 07:59:29;;;;;;;5.10;1.70;;;34.40;91.20;;;;;;4236820;27;20039;-63
2021/09/01 08:01:35;;;;;;;2.80;1.65;;;34.30;91.50;;;;;;4230643;27;20035;-63
2021/09/01 08:03:40;;;;;;;2.63;1.80;;;34.40;91.10;;;;;;4224256;27;20050;-63
2021/09/01 08:05:46;;;;;;;3.60;1.80;;;34.30;91.40;;;;;;4227003;28;20040;-63
2021/09/01 08:07:50;;;;;;;2.25;1.73;;;34.30;90.80;;;;;;4234614;27;20071;-63
2021/09/01 08:09:55;;;;;;;1.98;1.50;;;34.30;90.90;;;;;;4231935;28;20060;-63
2021/09/01 08:11:59;;;;;;;2.58;1.80;;;34.30;91.30;;;;;;4232044;27;20516;-63
2021/09/01 08:14:04;;;;;;;3.22;1.90;;;34.30;91.40;;;;;;4235678;27;20039;-63
2021/09/01 08:16:09;;;;;;;2.17;1.67;;;34.30;91.90;;;;;;4235166;27;20101;-63
2021/09/01 08:18:13;;;;;;;3.30;1.77;;;34.30;92.00;;;;;;4226869;28;20085;-63
2021/09/01 08:20:21;;;;;;;2.05;1.55;;;34.20;90.50;;;;;;4222588;28;20516;-63
2021/09/01 08:22:25;;;;;;;2.00;1.80;;;34.10;91.30;;;;;;4209441;28;20051;-63
2021/09/01 08:24:30;;;;;;;2.35;1.60;;;34.10;91.00;;;;;;4211382;28;20054;-62
2021/09/01 08:26:34;;;;;;;6.15;2.00;;;34.00;91.40;;;;;;4229785;28;20039;-63
2021/09/01 08:28:39;;;;;;;2.65;2.03;;;33.70;92.80;;;;;;4236035;28;20039;-64
2021/09/01 08:30:43;;;;;;;6.20;2.35;;;33.50;94.10;;;;;;4215248;28;20058;-64
2021/09/01 08:32:50;;;;;;;3.45;1.92;;;33.20;95.20;;;;;;4233444;28;20501;-63
2021/09/01 08:34:54;;;;;;;3.63;2.00;;;32.80;96.30;;;;;;4231135;28;20316;-63
2021/09/01 08:37:00;;;;;;;3.95;2.10;;;32.70;97.00;;;;;;4233806;28;20074;-63
2021/09/01 08:39:04;;;;;;;3.17;2.30;;;32.20;98.20;;;;;;4233424;28;20043;-63
2021/09/01 08:41:09;;;;;;;3.65;2.20;;;32.00;98.70;;;;;;4214642;28;20746;-64
2021/09/01 08:43:16;;;;;;;3.42;2.13;;;32.00;99.30;;;;;;4233783;28;20039;-63
2021/09/01 08:45:20;;;;;;;2.20;1.90;;;32.00;99.50;;;;;;4196499;28;20094;-64
2021/09/01 08:47:25;;;;;;;2.70;2.00;;;32.00;99.60;;;;;;4232516;27;20417;-64
2021/09/01 08:49:31;;;;;;;4.55;2.08;;;32.00;99.90;;;;;;4219049;28;20584;-64
2021/09/01 08:51:36;;;;;;;2.80;1.73;;;31.90;99.90;;;;;;4204784;28;20078;-63
2021/09/01 08:53:40;;;;;;;2.15;1.25;;;31.80;99.90;;;;;;4228733;28;20047;-65
2021/09/01 08:55:47;;;;;;;1.88;1.27;;;31.70;99.90;;;;;;4228651;28;20039;-64
2021/09/01 08:57:52;;;;;;;1.35;1.00;;;31.60;99.90;;;;;;4214380;28;20066;-64
2021/09/01 08:59:56;;;;;;;2.92;1.08;;;31.30;99.90;;;;;;4218681;28;20038;-63
2021/09/01 09:02:00;;;;;;;2.83;1.67;;;31.30;99.90;;;;;;4231091;28;20081;-63
2021/09/01 09:04:06;;;;;;;20.52;15.57;;;30.80;99.90;;;;;;4231614;28;20039;-63
2021/09/01 09:06:11;;;;;;;15.38;11.00;;;30.80;99.90;;;;;;4218365;28;20309;-64
2021/09/01 09:08:15;;;;;;;9.77;5.47;;;30.70;99.90;;;;;;4231608;28;20082;-63
2021/09/01 09:10:36;;;;;;;6.85;3.75;;;30.70;99.90;;;;;;4231404;28;20075;-63
2021/09/01 09:12:40;;;;;;;4.93;3.25;;;30.90;99.90;;;;;;4231544;28;20047;-66
2021/09/01 09:14:48;;;;;;;9.45;4.00;;;31.00;99.90;;;;;;4231487;28;20056;-63
2021/09/01 09:17:09;;;;;;;7.88;4.00;;;31.00;99.90;;;;;;4205595;28;20048;-62
2021/09/01 09:19:14;;;;;;;3.33;2.35;;;31.10;99.90;;;;;;4231537;28;20044;-64
2021/09/01 09:21:21;;;;;;;7.13;2.50;;;31.00;99.90;;;;;;4231380;28;20378;-65
2021/09/01 09:23:33;;;;;;;9.23;2.67;;;31.00;99.90;;;;;;4231405;28;20537;-64
2021/09/01 09:25:37;;;;;;;5.30;2.60;;;31.00;99.90;;;;;;4230769;28;20187;-65
2021/09/01 09:27:52;;;;;;;4.43;2.90;;;31.00;99.90;;;;;;4231429;28;20040;-66
2021/09/01 09:29:57;;;;;;;4.70;2.30;;;30.80;99.90;;;;;;4229694;28;20043;-65
2021/09/01 09:32:10;;;;;;;5.40;2.60;;;30.70;99.90;;;;;;4229376;28;20138;-65
2021/09/01 09:34:19;;;;;;;7.50;3.17;;;30.70;99.90;;;;;;4229560;28;20082;-64
2021/09/01 09:36:23;;;;;;;5.55;3.55;;;30.80;99.90;;;;;;4230476;27;20451;-65
2021/09/01 09:38:48;;;;;;;11.45;7.20;;;30.70;99.90;;;;;;4220341;28;20047;-64
2021/09/01 09:40:52;;;;;;;8.60;6.70;;;30.40;99.90;;;;;;4230547;27;20031;-65
2021/09/01 09:42:56;;;;;;;7.60;5.97;;;30.50;99.90;;;;;;4232314;27;20541;-65
2021/09/01 09:45:03;;;;;;;3.38;2.58;;;30.40;99.90;;;;;;4224073;28;20036;-66
2021/09/01 09:47:08;;;;;;;2.95;2.22;;;30.00;99.90;;;;;;4216636;28;20044;-66
2021/09/01 09:49:12;;;;;;;3.25;1.90;;;30.20;99.90;;;;;;4230706;27;20513;-66
2021/09/01 09:51:18;;;;;;;3.92;2.90;;;30.30;99.90;;;;;;4229403;27;20066;-66
2021/09/01 09:53:32;;;;;;;5.15;2.50;;;30.40;99.90;;;;;;4232762;27;20126;-66
2021/09/01 09:55:36;;;;;;;4.60;3.13;;;30.40;99.90;;;;;;4233093;27;20048;-65
2021/09/01 09:57:50;;;;;;;4.05;3.00;;;30.50;99.90;;;;;;4226705;27;20035;-65
2021/09/01 09:59:55;;;;;;;2.80;1.80;;;30.50;99.90;;;;;;4226589;28;20491;-65
2021/09/01 10:01:59;;;;;;;3.20;1.90;;;30.30;99.90;;;;;;4207844;28;20169;-66
2021/09/01 10:04:04;;;;;;;3.10;1.90;;;30.20;99.90;;;;;;4227218;27;20031;-66
2021/09/01 10:06:10;;;;;;;6.22;3.53;;;30.30;99.90;;;;;;4212096;27;20036;-66
2021/09/01 10:08:14;;;;;;;5.43;3.65;;;30.40;99.90;;;;;;4232421;27;20082;-65
2021/09/01 10:10:18;;;;;;;5.70;2.90;;;30.40;99.90;;;;;;4232021;27;20054;-66
2021/09/01 10:12:25;;;;;;;4.63;2.30;;;30.50;99.90;;;;;;4232264;27;20156;-67
2021/09/01 10:14:30;;;;;;;7.00;2.10;;;30.50;99.90;;;;;;4228301;27;20375;-67
2021/09/01 10:16:35;;;;;;;4.05;2.15;;;30.50;99.90;;;;;;4214627;28;20051;-68
2021/09/01 10:18:40;;;;;;;7.38;2.20;;;30.50;99.90;;;;;;4227094;28;20039;-67
2021/09/01 10:20:45;;;;;;;5.82;2.83;;;30.60;99.90;;;;;;4226751;28;20132;-67
2021/09/01 10:23:03;;;;;;;5.93;3.28;;;30.50;99.90;;;;;;4208088;28;20116;-67
2021/09/01 10:25:08;;;;;;;6.32;4.32;;;30.60;99.90;;;;;;4226361;27;20055;-66
2021/09/01 10:27:23;;;;;;;9.55;3.28;;;30.60;99.90;;;;;;4236363;27;20412;-66
2021/09/01 10:29:39;;;;;;;3.95;2.17;;;30.50;99.90;;;;;;4230970;27;20105;-66
2021/09/01 10:31:45;;;;;;;6.57;2.20;;;30.50;99.90;;;;;;4226400;28;20043;-67
2021/09/01 10:33:53;;;;;;;4.57;2.92;;;30.50;99.90;;;;;;4221348;28;20048;-67
2021/09/01 10:35:58;;;;;;;5.22;2.58;;;30.50;99.90;;;;;;4206722;28;20044;-66
2021/09/01 10:38:05;;;;;;;5.68;4.10;;;30.50;99.90;;;;;;4230859;27;20509;-66
2021/09/01 10:40:33;;;;;;;7.72;3.50;;;30.50;99.90;;;;;;4230126;27;20035;-66
2021/09/01 10:42:44;;;;;;;7.57;4.88;;;30.40;99.90;;;;;;4231140;27;20043;-66
2021/09/01 10:44:49;;;;;;;5.22;3.13;;;30.40;99.90;;;;;;4234459;27;20383;-66
2021/09/01 10:47:01;;;;;;;5.95;3.53;;;30.40;99.90;;;;;;4235513;27;20055;-66
2021/09/01 10:49:06;;;;;;;;;;;30.40;99.90;;;;;;4233444;27;20578;-67
2021/09/01 10:51:26;;;;;;;6.18;3.10;;;30.40;99.90;;;;;;4236344;27;19923;-66
2021/09/01 10:53:35;;;;;;;6.85;4.93;;;30.40;99.90;;;;;;4235885;27;20048;-67
2021/09/01 10:55:51;;;;;;;8.85;5.97;;;30.40;99.90;;;;;;4218395;28;20333;-67